Time;durP1;ratioP1;P1;durP2;ratioP2;P2;SDS_P1;SDS_P2;PMS_P1;PMS_P2;Temp;Humidity;BMP_temperature;BMP_pressure;BME280_temperature;BME280_humidity;BME280_pressure;Samples;Min_cycle;Max_cycle;Signal;HPM_P1;HPM_P2
2023/10/03 00:00:22;;;;;;;4.95;3.08;;;;;;;13.34;58.87;94380.53;525924;28;974;-40
2023/10/03 00:00:38;;;;;;;3.78;2.75;;;;;;;13.44;59.40;94417.59;527673;28;881;-39
2023/10/03 00:00:53;;;;;;;3.88;2.70;;;;;;;13.41;59.31;94415.91;528090;28;876;-39
2023/10/03 00:01:10;;;;;;;3.85;2.55;;;;;;;13.43;59.36;94418.13;528123;28;900;-40
2023/10/03 00:01:25;;;;;;;3.65;2.53;;;;;;;13.39;59.41;94412.19;528240;28;877;-40
2023/10/03 00:01:41;;;;;;;5.83;2.50;;;;;;;13.43;59.30;94418.13;528210;28;1664;-40
2023/10/03 00:02:00;;;;;;;6.15;2.75;;;;;;;13.43;59.54;94418.88;528121;28;932;-40
2023/10/03 00:02:16;;;;;;;3.28;2.78;;;;;;;13.45;59.51;94424.63;528049;28;956;-40
2023/10/03 00:02:32;;;;;;;3.72;2.60;;;;;;;13.46;59.46;94417.06;528058;28;837;-39
2023/10/03 00:02:50;;;;;;;5.13;2.58;;;;;;;13.47;59.41;94419.28;528060;28;829;-39
2023/10/03 00:03:08;;;;;;;4.68;2.63;;;;;;;13.48;59.36;94408.94;528106;28;928;-39
2023/10/03 00:03:23;;;;;;;3.38;2.63;;;;;;;13.50;59.16;94417.44;528045;28;888;-40
2023/10/03 00:03:39;;;;;;;4.07;2.60;;;;;;;13.50;59.25;94418.19;528030;28;924;-40
2023/10/03 00:03:54;;;;;;;4.95;2.88;;;;;;;13.51;59.09;94416.91;528159;28;1716;-40
2023/10/03 00:04:10;;;;;;;4.50;2.77;;;;;;;13.52;59.31;94423.94;528160;28;864;-40
2023/10/03 00:04:26;;;;;;;5.20;2.88;;;;;;;13.53;59.37;94419.91;528182;28;912;-40
2023/10/03 00:04:41;;;;;;;4.70;2.97;;;;;;;13.54;59.30;94415.06;528200;28;969;-40
2023/10/03 00:04:56;;;;;;;4.35;2.80;;;;;;;13.53;59.27;94417.13;528316;28;800;-39
2023/10/03 00:05:15;;;;;;;5.90;2.50;;;;;;;13.53;59.15;94422.69;528174;28;915;-39
2023/10/03 00:05:33;;;;;;;3.15;2.20;;;;;;;13.54;59.04;94424.16;528230;28;946;-39
2023/10/03 00:05:51;;;;;;;3.33;2.40;;;;;;;13.55;58.83;94425.66;528239;28;1094;-39
2023/10/03 00:06:06;;;;;;;2.35;2.03;;;;;;;13.55;58.89;94422.13;528279;28;888;-39
2023/10/03 00:06:21;;;;;;;3.00;2.20;;;;;;;13.54;58.88;94418.59;528272;28;804;-39
2023/10/03 00:06:38;;;;;;;4.20;2.60;;;;;;;13.54;58.88;94417.84;528289;28;797;-40
2023/10/03 00:06:54;;;;;;;3.20;2.30;;;;;;;13.54;58.84;94424.16;528241;28;1063;-39
2023/10/03 00:07:09;;;;;;;3.53;2.50;;;;;;;13.55;58.84;94420.09;528298;28;832;-39
2023/10/03 00:07:24;;;;;;;3.92;2.50;;;;;;;13.56;58.86;94418.03;528279;28;848;-40
2023/10/03 00:07:40;;;;;;;3.40;2.37;;;;;;;13.54;58.54;94421.38;528216;28;939;-40
2023/10/03 00:07:56;;;;;;;4.80;2.50;;;;;;;13.55;58.77;94416.56;528225;28;936;-40
2023/10/03 00:08:13;;;;;;;4.68;2.30;;;;;;;13.54;58.70;94417.84;528205;28;936;-39
2023/10/03 00:08:29;;;;;;;3.15;2.15;;;;;;;13.55;58.41;94417.31;528279;28;880;-39
2023/10/03 00:08:45;;;;;;;2.77;2.40;;;;;;;13.55;58.19;94425.66;528258;28;804;-39
2023/10/03 00:09:01;;;;;;;2.95;2.65;;;;;;;13.55;58.13;94422.88;528195;28;880;-40
2023/10/03 00:09:16;;;;;;;4.25;2.38;;;;;;;13.52;58.10;94412.84;528192;28;860;-40
2023/10/03 00:09:32;;;;;;;4.30;2.20;;;;;;;13.54;58.20;94423.41;528202;28;880;-40
2023/10/03 00:09:48;;;;;;;3.38;2.42;;;;;;;13.54;58.26;94421.38;528299;28;789;-39
2023/10/03 00:10:03;;;;;;;3.93;2.60;;;;;;;13.54;58.24;94420.63;528213;28;948;-39
2023/10/03 00:10:19;;;;;;;4.45;2.58;;;;;;;13.54;58.15;94424.16;528189;28;931;-40
2023/10/03 00:10:38;;;;;;;4.78;2.70;;;;;;;13.51;58.16;94416.19;528261;27;781;-40
2023/10/03 00:10:53;;;;;;;3.58;2.50;;;;;;;13.47;58.30;94408.19;528159;28;900;-40
2023/10/03 00:11:17;;;;;;;2.60;2.20;;;;;;;13.53;58.24;94425.44;528294;27;880;-39
2023/10/03 00:11:34;;;;;;;2.97;2.25;;;;;;;13.54;58.08;94423.41;528216;28;1032;-39
2023/10/03 00:11:51;;;;;;;2.97;2.15;;;;;;;13.53;57.75;94421.94;528245;28;877;-40
2023/10/03 00:12:06;;;;;;;3.50;2.30;;;;;;;13.53;57.98;94427.47;528194;28;958;-39
2023/10/03 00:12:22;;;;;;;4.07;2.38;;;;;;;13.51;57.90;94422.44;528224;28;832;-39
2023/10/03 00:12:38;;;;;;;3.88;2.28;;;;;;;13.50;58.08;94423.75;528174;28;1014;-39
2023/10/03 00:12:53;;;;;;;3.47;2.10;;;;;;;13.49;57.93;94419.47;528241;28;817;-39
2023/10/03 00:13:10;;;;;;;6.97;2.10;;;;;;;13.48;57.98;94423.56;528248;28;801;-40
2023/10/03 00:13:26;;;;;;;7.25;2.40;;;;;;;13.48;57.81;94425.56;528181;28;988;-39
2023/10/03 00:13:41;;;;;;;4.70;2.67;;;;;;;13.47;57.91;94422.06;528267;28;849;-40
2023/10/03 00:13:57;;;;;;;5.28;2.72;;;;;;;13.45;58.01;94430.19;528191;28;1093;-40
2023/10/03 00:14:12;;;;;;;4.70;2.67;;;;;;;13.45;58.04;94429.44;528246;28;923;-40
2023/10/03 00:14:27;;;;;;;4.50;2.50;;;;;;;13.43;58.07;94421.66;528150;27;856;-39
2023/10/03 00:14:43;;;;;;;3.70;2.33;;;;;;;13.43;58.10;94427.22;528167;28;864;-39
2023/10/03 00:14:58;;;;;;;2.83;2.28;;;;;;;13.41;57.82;94429.78;528277;28;868;-39
2023/10/03 00:15:18;;;;;;;2.93;2.33;;;;;;;13.40;57.95;94425.53;528276;28;782;-39
2023/10/03 00:15:34;;;;;;;3.33;2.58;;;;;;;13.39;57.85;94420.50;528228;28;879;-40
2023/10/03 00:15:50;;;;;;;3.90;2.70;;;;;;;13.38;57.92;94428.09;528225;28;1089;-39
2023/10/03 00:16:06;;;;;;;4.50;2.55;;;;;;;13.37;57.88;94423.84;528123;28;1922;-40
2023/10/03 00:16:22;;;;;;;3.88;2.47;;;;;;;13.36;58.04;94418.84;528240;28;820;-39
2023/10/03 00:16:38;;;;;;;3.08;2.40;;;;;;;13.32;58.06;94415.69;528236;28;919;-40
2023/10/03 00:16:54;;;;;;;2.90;2.50;;;;;;;13.33;58.06;94420.66;528211;28;931;-40
2023/10/03 00:17:10;;;;;;;6.22;2.55;;;;;;;13.34;58.08;94421.41;528175;28;1106;-39
2023/10/03 00:17:25;;;;;;;6.18;2.40;;;;;;;13.32;58.16;94419.16;528217;28;908;-39
2023/10/03 00:17:40;;;;;;;3.50;2.20;;;;;;;13.32;58.07;94424.72;528222;28;840;-39
2023/10/03 00:17:56;;;;;;;3.23;2.20;;;;;;;13.27;58.07;94416.56;526824;28;1149;-39
2023/10/03 00:18:12;;;;;;;3.03;2.38;;;;;;;13.31;58.04;94426.03;526126;28;931;-39
2023/10/03 00:18:29;;;;;;;3.38;2.25;;;;;;;13.30;58.18;94421.75;526224;28;801;-39
2023/10/03 00:18:44;;;;;;;3.20;2.00;;;;;;;13.29;58.07;94420.28;526095;28;940;-40
2023/10/03 00:19:00;;;;;;;3.27;2.27;;;;;;;13.28;58.14;94424.31;526113;28;992;-39
2023/10/03 00:19:15;;;;;;;3.70;2.47;;;;;;;13.28;58.11;94420.78;526205;28;785;-39
2023/10/03 00:19:31;;;;;;;3.90;2.63;;;;;;;13.26;58.25;94421.34;526112;28;812;-39
2023/10/03 00:19:46;;;;;;;3.95;2.80;;;;;;;13.25;58.19;94425.41;526147;28;805;-40
2023/10/03 00:20:04;;;;;;;3.10;2.33;;;;;;;13.24;58.23;94423.94;526159;28;782;-39
2023/10/03 00:20:22;;;;;;;2.97;2.35;;;;;;;13.25;58.22;94428.19;525998;28;1017;-40
2023/10/03 00:20:37;;;;;;;3.47;2.60;;;;;;;13.22;58.29;94420.94;526135;28;805;-40
2023/10/03 00:20:53;;;;;;;3.37;2.57;;;;;;;13.23;58.38;94422.44;526166;28;785;-40
2023/10/03 00:21:08;;;;;;;2.95;2.50;;;;;;;13.23;58.47;94421.69;526528;28;1238;-40
2023/10/03 00:21:24;;;;;;;3.50;2.10;;;;;;;13.23;58.57;94419.66;528224;28;1092;-40
2023/10/03 00:21:39;;;;;;;3.37;2.10;;;;;;;13.22;58.34;94420.19;528252;28;888;-40
2023/10/03 00:21:54;;;;;;;2.80;2.33;;;;;;;13.22;58.29;94425.75;528246;28;786;-40
2023/10/03 00:22:10;;;;;;;5.47;2.67;;;;;;;13.21;58.32;94430.53;528294;28;808;-39
2023/10/03 00:22:25;;;;;;;5.83;2.40;;;;;;;13.22;58.21;94425.75;528262;28;792;-39
2023/10/03 00:22:41;;;;;;;3.65;2.20;;;;;;;13.18;58.56;94417.03;528233;28;848;-39
2023/10/03 00:22:56;;;;;;;3.37;2.60;;;;;;;13.19;58.54;94416.47;528238;28;888;-40
2023/10/03 00:23:11;;;;;;;3.08;2.22;;;;;;;13.18;58.51;94423.31;528221;28;812;-39
2023/10/03 00:23:27;;;;;;;4.00;2.37;;;;;;;13.18;58.65;94426.09;528215;28;904;-40
2023/10/03 00:23:42;;;;;;;4.60;2.77;;;;;;;13.18;58.79;94425.34;528195;28;884;-40
2023/10/03 00:23:58;;;;;;;4.03;2.53;;;;;;;13.18;58.89;94425.34;528293;28;984;-40
2023/10/03 00:24:13;;;;;;;4.93;2.60;;;;;;;13.17;58.85;94419.06;528172;28;848;-40
2023/10/03 00:24:29;;;;;;;5.45;2.70;;;;;;;13.17;58.90;94423.84;528326;28;801;-39
2023/10/03 00:24:45;;;;;;;7.20;2.63;;;;;;;13.15;58.91;94421.63;528169;28;951;-39
2023/10/03 00:25:01;;;;;;;7.33;2.80;;;;;;;13.15;58.95;94420.88;528231;28;860;-39
2023/10/03 00:25:26;;;;;;;4.05;2.60;;;;;;;13.14;59.03;94425.69;528319;28;836;-39
2023/10/03 00:25:41;;;;;;;3.70;2.38;;;;;;;13.14;58.80;94424.94;528006;28;911;-40
2023/10/03 00:25:59;;;;;;;4.13;2.33;;;;;;;13.12;59.03;94421.97;528106;28;817;-39
2023/10/03 00:26:16;;;;;;;4.43;2.58;;;;;;;13.13;59.24;94423.44;527540;28;1061;-40
2023/10/03 00:26:32;;;;;;;4.18;2.58;;;;;;;13.11;59.41;94420.47;527986;28;1102;-39
2023/10/03 00:26:50;;;;;;;3.90;2.40;;;;;;;13.11;59.17;94421.22;528116;28;804;-39
2023/10/03 00:27:05;;;;;;;4.05;2.30;;;;;;;13.11;59.36;94420.47;528098;28;1090;-40
2023/10/03 00:27:21;;;;;;;4.28;2.40;;;;;;;13.10;59.33;94419.00;526304;28;1207;-40
2023/10/03 00:27:37;;;;;;;3.10;2.40;;;;;;;13.10;59.37;94416.22;526133;28;895;-39
2023/10/03 00:27:57;;;;;;;2.47;2.20;;;;;;;13.09;59.47;94421.03;526154;28;928;-39
2023/10/03 00:28:13;;;;;;;3.27;2.47;;;;;;;13.08;59.44;94422.31;526072;28;952;-39
2023/10/03 00:28:33;;;;;;;4.22;2.60;;;;;;;13.03;59.46;94420.41;525973;28;1487;-39
2023/10/03 00:28:51;;;;;;;3.95;2.58;;;;;;;12.99;59.54;94428.31;526052;28;971;-40
2023/10/03 00:29:13;;;;;;;3.97;2.50;;;;;;;12.96;59.69;94418.28;526126;28;885;-40
2023/10/03 00:29:29;;;;;;;4.22;2.33;;;;;;;12.95;60.04;94420.31;526170;28;908;-40
2023/10/03 00:29:45;;;;;;;4.82;2.53;;;;;;;12.95;60.11;94414.78;526101;28;930;-40
2023/10/03 00:30:01;;;;;;;4.10;2.50;;;;;;;12.97;59.83;94425.34;526112;28;829;-39
2023/10/03 00:30:19;;;;;;;4.32;2.60;;;;;;;12.97;60.14;94422.56;526163;28;806;-39
2023/10/03 00:30:36;;;;;;;3.63;2.60;;;;;;;12.96;59.95;94421.06;527963;28;2439;-39
2023/10/03 00:30:51;;;;;;;2.88;2.50;;;;;;;12.97;60.19;94419.78;528137;28;884;-39
2023/10/03 00:31:10;;;;;;;2.93;2.33;;;;;;;12.96;60.01;94415.53;528289;28;809;-40
2023/10/03 00:31:26;;;;;;;3.20;2.60;;;;;;;12.95;60.10;94416.78;528271;28;884;-39
2023/10/03 00:31:41;;;;;;;3.30;2.50;;;;;;;12.96;60.29;94421.06;528235;28;777;-40
2023/10/03 00:31:58;;;;;;;4.50;2.40;;;;;;;12.95;60.21;94420.31;528250;28;1086;-40
2023/10/03 00:32:14;;;;;;;4.47;2.50;;;;;;;12.95;60.07;94425.13;528207;28;968;-40
2023/10/03 00:32:30;;;;;;;3.47;2.45;;;;;;;12.92;60.32;94417.91;528171;28;958;-40
2023/10/03 00:32:48;;;;;;;4.40;2.72;;;;;;;12.96;60.10;94426.63;528230;28;947;-40
2023/10/03 00:33:04;;;;;;;3.58;2.50;;;;;;;12.97;59.95;94425.34;528214;28;845;-39
2023/10/03 00:33:23;;;;;;;3.15;2.50;;;;;;;12.97;60.19;94428.13;528173;28;928;-39
2023/10/03 00:33:38;;;;;;;3.35;2.47;;;;;;;12.97;60.01;94424.59;528217;28;1605;-40
2023/10/03 00:33:53;;;;;;;3.20;2.40;;;;;;;12.95;59.96;94420.31;528260;28;876;-39
2023/10/03 00:34:09;;;;;;;3.40;2.40;;;;;;;12.96;59.97;94418.28;527591;28;1121;-40
2023/10/03 00:34:24;;;;;;;2.85;2.10;;;;;;;12.95;59.97;94425.13;526148;28;845;-39
2023/10/03 00:34:41;;;;;;;2.37;2.13;;;;;;;12.94;59.97;94421.63;526102;28;868;-40
2023/10/03 00:34:56;;;;;;;2.90;2.40;;;;;;;12.93;59.96;94422.88;526184;28;889;-40
2023/10/03 00:35:12;;;;;;;2.87;2.47;;;;;;;12.90;59.98;94417.69;526080;28;872;-39
2023/10/03 00:35:28;;;;;;;3.90;2.60;;;;;;;12.89;60.10;94418.97;526084;28;896;-40
2023/10/03 00:35:43;;;;;;;5.40;2.83;;;;;;;12.90;60.40;94417.69;526173;28;829;-40
2023/10/03 00:35:58;;;;;;;5.00;2.83;;;;;;;12.90;60.32;94426.00;526163;28;864;-40
2023/10/03 00:36:22;;;;;;;3.63;2.57;;;;;;;12.91;60.07;94421.94;526002;28;1963;-39
2023/10/03 00:36:37;;;;;;;3.38;2.33;;;;;;;12.91;60.05;94421.94;526175;28;909;-40
2023/10/03 00:36:54;;;;;;;3.67;2.50;;;;;;;12.91;60.09;94419.91;526141;28;822;-39
2023/10/03 00:37:11;;;;;;;3.25;2.50;;;;;;;12.92;59.81;94417.91;526180;28;868;-39
2023/10/03 00:37:26;;;;;;;2.60;2.40;;;;;;;12.93;59.68;94417.34;526167;28;980;-40
2023/10/03 00:37:46;;;;;;;2.78;2.33;;;;;;;12.92;59.70;94415.13;526147;28;805;-39
2023/10/03 00:38:06;;;;;;;5.55;2.55;;;;;;;12.95;59.76;94420.31;526082;28;1612;-40
2023/10/03 00:38:22;;;;;;;6.45;2.70;;;;;;;12.96;59.54;94421.06;526088;28;1633;-39
2023/10/03 00:38:38;;;;;;;4.15;2.53;;;;;;;12.95;59.66;94416.78;526133;28;1006;-40
2023/10/03 00:38:53;;;;;;;3.33;2.60;;;;;;;12.96;59.58;94421.06;526126;28;802;-40
2023/10/03 00:39:09;;;;;;;4.80;2.38;;;;;;;12.97;59.51;94419.03;526121;28;987;-40
2023/10/03 00:39:24;;;;;;;4.17;2.30;;;;;;;12.97;59.41;94422.56;526139;28;848;-40
2023/10/03 00:39:41;;;;;;;3.35;2.55;;;;;;;12.97;59.51;94416.28;526118;28;829;-39
2023/10/03 00:39:57;;;;;;;3.80;2.50;;;;;;;12.97;59.50;94419.03;526130;28;821;-39
2023/10/03 00:40:17;;;;;;;2.60;2.35;;;;;;;12.98;59.63;94424.03;526135;28;881;-39
2023/10/03 00:40:32;;;;;;;2.90;2.63;;;;;;;12.98;59.70;94418.50;526113;28;825;-39
2023/10/03 00:40:49;;;;;;;3.22;2.65;;;;;;;12.98;59.67;94423.28;526155;28;781;-39
2023/10/03 00:41:05;;;;;;;3.55;2.70;;;;;;;12.98;59.50;94418.50;526103;28;856;-40
2023/10/03 00:41:20;;;;;;;3.65;2.30;;;;;;;12.95;59.43;94411.25;526136;28;899;-39
2023/10/03 00:41:37;;;;;;;3.83;2.20;;;;;;;12.98;59.71;94417.75;526080;28;879;-40
2023/10/03 00:41:52;;;;;;;3.15;2.40;;;;;;;12.99;59.73;94410.94;526057;28;893;-39
2023/10/03 00:42:10;;;;;;;3.90;2.50;;;;;;;12.98;59.39;94417.75;526103;28;920;-40
2023/10/03 00:42:25;;;;;;;3.95;2.70;;;;;;;12.98;59.71;94415.72;526107;28;833;-39
2023/10/03 00:42:41;;;;;;;3.33;2.60;;;;;;;12.98;59.67;94412.19;526089;28;1587;-40
2023/10/03 00:42:58;;;;;;;4.03;2.43;;;;;;;12.98;59.09;94418.50;526096;28;872;-39
2023/10/03 00:43:13;;;;;;;4.32;2.45;;;;;;;12.98;59.32;94415.72;526112;28;836;-40
2023/10/03 00:43:29;;;;;;;3.30;2.53;;;;;;;12.99;59.61;94416.47;526145;28;1539;-39
2023/10/03 00:44:04;;;;;;;3.38;2.60;;;;;;;12.98;59.47;94412.94;526105;28;766;-39
2023/10/03 00:44:19;;;;;;;4.30;2.30;;;;;;;12.97;59.49;94419.78;526105;28;873;-40
2023/10/03 00:44:37;;;;;;;4.17;2.40;;;;;;;12.97;59.28;94417.03;526089;28;940;-39
2023/10/03 00:44:52;;;;;;;3.08;2.50;;;;;;;12.97;59.37;94411.47;525993;28;1007;-39
2023/10/03 00:45:10;;;;;;;3.25;2.42;;;;;;;12.96;59.52;94418.28;526109;28;881;-39
2023/10/03 00:45:26;;;;;;;3.78;2.65;;;;;;;12.96;59.32;94418.28;526073;28;926;-40
2023/10/03 00:45:42;;;;;;;3.28;2.50;;;;;;;12.98;59.57;94418.50;525887;28;845;-39
2023/10/03 00:45:57;;;;;;;3.63;2.42;;;;;;;12.96;59.35;94412.75;526007;28;793;-39
2023/10/03 00:46:13;;;;;;;4.03;2.43;;;;;;;12.96;59.57;94415.53;525989;28;814;-39
2023/10/03 00:46:30;;;;;;;3.22;2.30;;;;;;;12.96;59.39;94412.75;525896;28;947;-40
2023/10/03 00:46:45;;;;;;;3.65;2.80;;;;;;;12.95;59.59;94414.03;525897;28;881;-39
2023/10/03 00:47:01;;;;;;;3.53;2.80;;;;;;;12.94;59.61;94416.06;525947;28;809;-39
2023/10/03 00:47:17;;;;;;;3.53;2.50;;;;;;;12.95;59.66;94420.31;525900;28;873;-39
2023/10/03 00:47:33;;;;;;;3.77;2.33;;;;;;;12.95;59.59;94414.03;526031;28;798;-40
2023/10/03 00:47:49;;;;;;;3.67;2.38;;;;;;;12.95;59.42;94414.03;526073;28;853;-40
2023/10/03 00:48:08;;;;;;;3.77;2.33;;;;;;;12.95;59.65;94416.78;525995;28;856;-40
2023/10/03 00:48:26;;;;;;;3.75;2.30;;;;;;;12.94;59.55;94412.56;525946;28;913;-40
2023/10/03 00:48:42;;;;;;;2.75;2.22;;;;;;;12.94;59.60;94416.06;525955;28;856;-40
2023/10/03 00:48:58;;;;;;;3.85;2.45;;;;;;;12.93;59.67;94414.56;525875;28;1034;-39
2023/10/03 00:49:14;;;;;;;3.80;2.33;;;;;;;12.93;59.54;94419.38;525974;28;861;-39
2023/10/03 00:49:31;;;;;;;3.13;2.38;;;;;;;12.93;59.31;94416.59;525943;28;981;-39
2023/10/03 00:49:46;;;;;;;3.72;2.70;;;;;;;12.93;59.51;94416.59;525856;28;932;-39
2023/10/03 00:50:06;;;;;;;4.70;2.73;;;;;;;12.83;59.40;94401.72;525866;28;854;-39
2023/10/03 00:50:28;;;;;;;3.28;2.42;;;;;;;12.91;59.22;94413.63;526067;28;852;-39
2023/10/03 00:50:44;;;;;;;3.28;2.60;;;;;;;12.90;59.26;94424.00;526038;28;1003;-39
2023/10/03 00:51:00;;;;;;;4.15;2.85;;;;;;;12.90;59.28;94420.47;526002;28;954;-40
2023/10/03 00:51:20;;;;;;;3.97;2.70;;;;;;;12.89;59.46;94416.94;525983;28;888;-39
2023/10/03 00:51:36;;;;;;;4.43;2.35;;;;;;;12.86;59.43;94417.28;525904;28;841;-39
2023/10/03 00:51:51;;;;;;;4.45;2.05;;;;;;;12.85;59.42;94413.03;525878;28;944;-40
2023/10/03 00:52:09;;;;;;;2.75;1.95;;;;;;;12.84;59.25;94415.03;525928;28;991;-40
2023/10/03 00:52:24;;;;;;;2.20;2.00;;;;;;;12.84;59.34;94414.31;523801;28;900;-40
2023/10/03 00:52:42;;;;;;;2.60;2.00;;;;;;;12.82;59.26;94422.44;523894;28;806;-40
2023/10/03 00:52:59;;;;;;;3.38;2.15;;;;;;;12.79;59.17;94420.72;523815;28;956;-40
2023/10/03 00:53:14;;;;;;;3.60;2.33;;;;;;;12.78;58.98;94419.97;525662;28;885;-40
2023/10/03 00:53:32;;;;;;;2.83;2.28;;;;;;;12.76;58.91;94419.78;525968;28;853;-40
2023/10/03 00:53:50;;;;;;;3.50;2.20;;;;;;;12.72;58.93;94421.38;523766;28;901;-39
2023/10/03 00:54:06;;;;;;;3.78;2.28;;;;;;;12.72;58.92;94413.81;523849;28;853;-40
2023/10/03 00:54:22;;;;;;;3.42;2.40;;;;;;;12.71;59.19;94417.88;525584;28;861;-40
2023/10/03 00:54:39;;;;;;;3.63;2.33;;;;;;;12.72;59.13;94415.84;523790;28;975;-40
2023/10/03 00:54:55;;;;;;;3.42;2.42;;;;;;;12.73;59.29;94420.84;523707;28;929;-40
2023/10/03 00:55:13;;;;;;;3.17;2.47;;;;;;;12.74;59.18;94410.50;523858;28;874;-40
2023/10/03 00:55:29;;;;;;;3.60;2.35;;;;;;;12.75;58.89;94417.56;523865;28;801;-40
2023/10/03 00:55:45;;;;;;;4.13;2.50;;;;;;;12.75;59.08;94418.31;525699;28;1594;-40
2023/10/03 00:56:02;;;;;;;3.87;2.60;;;;;;;12.76;58.94;94413.47;523869;28;806;-39
2023/10/03 00:56:19;;;;;;;11.00;3.17;;;;;;;12.76;59.18;94417.00;521793;28;842;-39
2023/10/03 00:56:34;;;;;;;41.67;6.18;;;;;;;12.77;59.09;94414.97;523130;28;965;-40
2023/10/03 00:56:50;;;;;;;44.23;8.20;;;;;;;12.77;59.24;94420.53;523864;28;825;-40
2023/10/03 00:57:08;;;;;;;23.10;6.28;;;;;;;12.77;59.17;94420.53;523832;28;799;-40
2023/10/03 00:57:24;;;;;;;25.40;4.53;;;;;;;12.76;59.18;94414.22;523802;28;1641;-40
2023/10/03 00:57:40;;;;;;;17.75;3.53;;;;;;;12.76;59.26;94410.72;521730;28;889;-40
2023/10/03 00:58:32;;;;;;;12.73;3.45;;;;;;;12.77;59.19;94409.44;525969;28;821;-40
2023/10/03 00:58:48;;;;;;;16.63;3.45;;;;;;;12.75;59.01;94412.75;525955;28;832;-39
2023/10/03 00:59:03;;;;;;;12.82;3.00;;;;;;;12.74;59.32;94404.97;525960;28;832;-39
2023/10/03 00:59:18;;;;;;;9.53;2.90;;;;;;;12.74;59.27;94411.25;525931;28;888;-39
2023/10/03 00:59:34;;;;;;;6.40;2.97;;;;;;;12.74;59.29;94419.56;525984;28;868;-39
2023/10/03 00:59:49;;;;;;;6.03;2.97;;;;;;;12.73;59.26;94420.84;526105;28;824;-40
2023/10/03 01:00:15;;;;;;;4.73;2.90;;;;;;;12.73;59.46;94417.34;526013;28;1687;-39
2023/10/03 01:00:31;;;;;;;4.30;2.78;;;;;;;12.73;59.36;94414.56;526044;28;975;-40
2023/10/03 01:00:51;;;;;;;4.13;2.72;;;;;;;12.72;59.23;94415.84;526111;28;868;-39
2023/10/03 01:01:09;;;;;;;7.32;2.60;;;;;;;12.72;59.29;94416.59;526015;28;947;-39
2023/10/03 01:01:28;;;;;;;8.50;2.65;;;;;;;12.72;59.15;94416.59;526102;28;837;-39
2023/10/03 01:01:46;;;;;;;4.03;2.10;;;;;;;12.71;59.15;94417.88;525796;28;947;-39
2023/10/03 01:02:06;;;;;;;5.25;2.58;;;;;;;12.71;59.11;94417.16;525929;28;927;-40
2023/10/03 01:02:21;;;;;;;4.13;2.60;;;;;;;12.70;58.87;94418.41;525864;28;896;-40
2023/10/03 01:02:46;;;;;;;5.07;2.03;;;;;;;12.69;59.44;94419.72;525946;28;833;-40
2023/10/03 01:03:01;;;;;;;4.35;2.30;;;;;;;12.69;59.19;94422.50;525883;28;899;-41
2023/10/03 01:03:37;;;;;;;3.23;2.40;;;;;;;12.69;59.37;94419.72;525884;28;890;-40
2023/10/03 01:03:55;;;;;;;4.30;2.50;;;;;;;12.69;59.41;94419.72;525993;28;918;-40
2023/10/03 01:04:18;;;;;;;5.05;2.53;;;;;;;12.68;59.51;94418.22;526106;28;868;-40
2023/10/03 01:04:34;;;;;;;3.75;2.50;;;;;;;12.68;59.58;94427.28;526023;28;935;-40
2023/10/03 01:04:50;;;;;;;3.03;2.15;;;;;;;12.68;59.58;94412.66;526079;28;828;-40
2023/10/03 01:05:08;;;;;;;3.50;2.40;;;;;;;12.68;59.50;94415.44;525984;28;1080;-41
2023/10/03 01:05:24;;;;;;;4.30;2.60;;;;;;;12.66;59.53;94416.00;526087;28;813;-41
2023/10/03 01:05:39;;;;;;;3.77;2.40;;;;;;;12.67;59.42;94417.47;526131;28;825;-40
2023/10/03 01:05:58;;;;;;;4.07;2.40;;;;;;;12.67;59.38;94417.47;526086;28;832;-40
2023/10/03 01:06:15;;;;;;;3.55;2.30;;;;;;;12.68;59.32;94421.72;526345;28;1109;-40
2023/10/03 01:06:30;;;;;;;3.33;2.40;;;;;;;12.68;59.42;94415.44;526441;28;1097;-41
2023/10/03 01:06:49;;;;;;;4.60;2.57;;;;;;;12.67;59.18;94416.72;526466;28;896;-40
2023/10/03 01:07:04;;;;;;;4.00;2.20;;;;;;;12.68;59.26;94418.22;526437;28;955;-41
2023/10/03 01:07:20;;;;;;;3.43;2.47;;;;;;;12.68;59.44;94420.97;526475;28;971;-41
2023/10/03 01:07:36;;;;;;;3.45;2.53;;;;;;;12.67;59.36;94419.47;526481;28;891;-40
2023/10/03 01:07:51;;;;;;;4.30;2.50;;;;;;;12.66;59.13;94418.00;526495;28;824;-40
2023/10/03 01:08:07;;;;;;;4.88;2.50;;;;;;;12.65;59.13;94425.56;526486;28;773;-40
2023/10/03 01:08:23;;;;;;;4.50;2.47;;;;;;;12.65;59.20;94420.03;526503;28;820;-40
2023/10/03 01:08:51;;;;;;;4.22;2.50;;;;;;;12.65;59.09;94419.28;526527;28;802;-40
2023/10/03 01:09:14;;;;;;;4.43;2.30;;;;;;;12.64;59.11;94417.81;526410;28;896;-40
2023/10/03 01:09:33;;;;;;;4.47;2.65;;;;;;;12.64;59.31;94417.81;526521;28;907;-40
2023/10/03 01:09:49;;;;;;;3.05;2.45;;;;;;;12.63;59.35;94421.84;526478;28;872;-40
2023/10/03 01:10:05;;;;;;;3.00;2.53;;;;;;;12.62;58.62;94418.34;526400;28;895;-40
2023/10/03 01:10:21;;;;;;;3.15;2.63;;;;;;;12.63;58.83;94425.38;526550;28;891;-40
2023/10/03 01:10:36;;;;;;;4.10;2.47;;;;;;;12.62;58.71;94417.59;526513;28;868;-40
2023/10/03 01:10:51;;;;;;;6.23;2.60;;;;;;;12.61;58.81;94419.63;526474;28;903;-40
2023/10/03 01:11:24;;;;;;;5.97;2.70;;;;;;;12.60;59.07;94420.94;526504;28;900;-40
2023/10/03 01:11:40;;;;;;;3.55;2.33;;;;;;;12.61;59.21;94419.63;526496;28;895;-40
2023/10/03 01:11:56;;;;;;;2.38;2.13;;;;;;;12.61;58.80;94419.63;526532;28;825;-40
2023/10/03 01:12:11;;;;;;;3.53;2.60;;;;;;;12.61;59.07;94416.84;526473;28;1507;-40
2023/10/03 01:12:29;;;;;;;4.82;2.75;;;;;;;12.61;58.68;94413.34;526569;28;809;-40
2023/10/03 01:12:48;;;;;;;5.85;2.63;;;;;;;12.60;58.58;94414.63;526380;28;967;-40
2023/10/03 01:13:09;;;;;;;4.15;2.40;;;;;;;12.61;58.53;94421.66;526491;28;939;-40
2023/10/03 01:13:25;;;;;;;3.17;2.05;;;;;;;12.60;58.61;94417.41;526448;28;972;-40
2023/10/03 01:13:47;;;;;;;3.50;2.40;;;;;;;12.59;58.64;94416.66;526414;28;861;-40
2023/10/03 01:14:05;;;;;;;2.97;2.47;;;;;;;12.59;58.46;94421.44;526429;28;1698;-40
2023/10/03 01:14:21;;;;;;;5.77;2.40;;;;;;;12.59;58.48;94415.91;526460;28;872;-40
2023/10/03 01:14:37;;;;;;;6.65;2.30;;;;;;;12.58;58.57;94411.66;526536;28;892;-40
2023/10/03 01:14:53;;;;;;;3.22;2.25;;;;;;;12.57;58.46;94410.16;526374;28;1020;-40
2023/10/03 01:15:19;;;;;;;3.40;2.67;;;;;;;12.56;58.60;94414.22;526478;28;1534;-40
2023/10/03 01:15:35;;;;;;;3.40;2.10;;;;;;;12.56;58.50;94414.22;526477;28;829;-40
2023/10/03 01:15:52;;;;;;;4.55;2.03;;;;;;;12.55;58.71;94416.25;526485;28;813;-40
2023/10/03 01:16:08;;;;;;;4.88;2.20;;;;;;;12.54;58.74;94419.56;526314;28;1979;-40
2023/10/03 01:16:33;;;;;;;2.63;2.03;;;;;;;12.54;58.63;94411.97;526413;28;880;-40
2023/10/03 01:16:49;;;;;;;2.92;2.33;;;;;;;12.55;58.62;94416.25;526409;28;900;-40
2023/10/03 01:17:06;;;;;;;3.13;2.53;;;;;;;12.54;58.66;94417.50;526485;28;829;-40
2023/10/03 01:17:22;;;;;;;3.10;2.25;;;;;;;12.53;58.82;94418.81;526450;28;856;-40
2023/10/03 01:17:38;;;;;;;3.78;2.50;;;;;;;12.54;58.88;94416.78;526458;28;969;-40
2023/10/03 01:17:57;;;;;;;4.27;2.27;;;;;;;12.53;58.79;94415.28;527360;28;1125;-40
2023/10/03 01:18:14;;;;;;;4.15;2.13;;;;;;;12.55;58.74;94415.50;528588;28;841;-40
2023/10/03 01:18:31;;;;;;;4.10;2.40;;;;;;;12.54;58.52;94419.56;528544;28;947;-40
2023/10/03 01:18:47;;;;;;;4.78;2.08;;;;;;;12.52;58.70;94414.53;528551;28;1020;-40
2023/10/03 01:19:14;;;;;;;2.22;1.83;;;;;;;12.52;58.75;94416.56;528496;28;864;-40
2023/10/03 01:19:31;;;;;;;3.00;2.33;;;;;;;12.51;58.75;94415.84;528591;28;951;-40
2023/10/03 01:19:47;;;;;;;3.22;2.40;;;;;;;12.50;58.61;94414.34;528587;28;820;-40
2023/10/03 01:20:08;;;;;;;3.38;2.40;;;;;;;12.50;58.55;94413.59;528587;28;840;-40
2023/10/03 01:20:24;;;;;;;2.83;2.20;;;;;;;12.49;58.78;94417.66;528420;28;904;-40
2023/10/03 01:20:48;;;;;;;3.65;2.42;;;;;;;12.48;58.61;94418.91;528565;28;978;-40
2023/10/03 01:21:06;;;;;;;5.28;2.30;;;;;;;12.47;58.51;94418.19;528555;27;836;-40
2023/10/03 01:21:22;;;;;;;4.20;2.17;;;;;;;12.47;58.71;94420.97;526431;28;970;-40
2023/10/03 01:21:40;;;;;;;2.63;2.42;;;;;;;12.47;58.68;94414.69;526418;28;856;-40
2023/10/03 01:21:56;;;;;;;3.75;2.53;;;;;;;12.47;58.67;94420.22;526430;28;939;-40
2023/10/03 01:22:13;;;;;;;3.38;2.40;;;;;;;12.41;58.57;94419.59;526336;28;985;-40
2023/10/03 01:22:28;;;;;;;2.63;2.30;;;;;;;12.35;58.87;94418.97;526530;28;887;-40
2023/10/03 01:22:44;;;;;;;2.17;1.93;;;;;;;12.31;58.90;94416.53;526378;28;801;-40
2023/10/03 01:23:06;;;;;;;2.78;2.00;;;;;;;12.16;58.70;94394.97;526515;28;911;-40
2023/10/03 01:23:22;;;;;;;4.45;2.47;;;;;;;12.30;59.05;94412.25;526402;28;888;-40
2023/10/03 01:23:40;;;;;;;4.68;2.53;;;;;;;12.31;58.92;94415.78;526461;28;844;-40